Time;durP1;ratioP1;P1;durP2;ratioP2;P2;SDS_P1;SDS_P2;PMS_P1;PMS_P2;Temp;Humidity;BMP_temperature;BMP_pressure;BME280_temperature;BME280_humidity;BME280_pressure;Samples;Min_cycle;Max_cycle;Signal;HPM_P1;HPM_P2
2022/09/21 00:01:08;;;;;;;23.17;13.30;;;;;;;;;;776589;180;895234;-55
2022/09/21 00:03:33;;;;;;;14.90;10.20;;;;;;;;;;767643;177;917961;-59
2022/09/21 00:06:01;;;;;;;14.43;10.00;;;;;;;;;;754777;183;927030;-54
2022/09/21 00:08:27;;;;;;;19.53;10.23;;;;;;;;;;764218;180;919927;-54
2022/09/21 00:10:53;;;;;;;15.17;9.50;;;;;;;;;;779010;180;818830;-55
2022/09/21 00:13:19;;;;;;;13.90;10.53;;;;;;;;;;762056;183;919350;-54
2022/09/21 00:15:45;;;;;;;14.97;9.47;;;;;;;;;;756708;182;918326;-53
2022/09/21 00:18:10;;;;;;;12.83;9.77;;;;;;;;;;759706;183;920054;-54
2022/09/21 00:20:36;;;;;;;15.30;9.07;;;;;;;;;;755216;183;919180;-54
2022/09/21 00:23:02;;;;;;;15.90;11.73;;;;;;;;;;750895;183;919254;-54
2022/09/21 00:25:28;;;;;;;13.38;9.30;;;;;;;;;;758558;183;823120;-55
2022/09/21 00:27:54;;;;;;;14.47;9.60;;;;;;;;;;771257;180;921257;-55
2022/09/21 00:30:20;;;;;;;15.00;9.60;;;;;;;;;;769839;177;920164;-54
2022/09/21 00:32:46;;;;;;;17.10;9.30;;;;;;;;;;764754;181;824715;-54
2022/09/21 00:35:11;;;;;;;16.00;10.30;;;;;;;;;;777473;178;917614;-55
2022/09/21 00:37:37;;;;;;;12.43;9.03;;;;;;;;;;771984;180;919506;-54
2022/09/21 00:40:03;;;;;;;13.00;9.30;;;;;;;;;;773006;179;919522;-55
2022/09/21 00:42:29;;;;;;;16.73;10.57;;;;;;;;;;769370;183;922600;-54
2022/09/21 00:44:55;;;;;;;20.83;10.23;;;;;;;;;;762715;181;817797;-54
2022/09/21 00:47:22;;;;;;;15.73;9.70;;;;;;;;;;756855;183;820497;-54
2022/09/21 00:49:49;;;;;;;13.30;9.88;;;;;;;;;;763992;183;818016;-54
2022/09/21 00:52:15;;;;;;;13.30;9.97;;;;;;;;;;763319;183;816394;-54
2022/09/21 00:54:41;;;;;;;13.90;10.20;;;;;;;;;;753926;183;922190;-54
2022/09/21 00:57:07;;;;;;;20.73;9.07;;;;;;;;;;759238;184;880902;-55
2022/09/21 00:59:32;;;;;;;14.70;8.97;;;;;;;;;;760381;183;918052;-54
2022/09/21 01:01:58;;;;;;;13.47;8.80;;;;;;;;;;762845;183;918649;-54
2022/09/21 01:04:25;;;;;;;15.50;10.40;;;;;;;;;;757057;184;919332;-54
2022/09/21 01:06:51;;;;;;;12.30;8.63;;;;;;;;;;761646;182;919979;-55
2022/09/21 01:09:16;;;;;;;11.50;9.37;;;;;;;;;;759574;183;915863;-54
2022/09/21 01:11:50;;;;;;;17.93;11.73;;;;;;;;;;762155;181;920650;-55
2022/09/21 01:14:18;;;;;;;22.10;9.80;;;;;;;;;;760863;183;919160;-54
2022/09/21 01:16:46;;;;;;;15.70;10.18;;;;;;;;;;758201;183;919399;-54
2022/09/21 01:19:14;;;;;;;17.00;11.50;;;;;;;;;;754032;183;919215;-54
2022/09/21 01:21:51;;;;;;;19.03;11.57;;;;;;;;;;756440;183;920122;-54
2022/09/21 01:24:18;;;;;;;17.70;12.40;;;;;;;;;;753619;183;919130;-54
2022/09/21 01:27:02;;;;;;;19.57;13.97;;;;;;;;;;762101;183;919055;-56
2022/09/21 01:29:30;;;;;;;19.97;13.53;;;;;;;;;;753031;183;917074;-54
2022/09/21 01:32:11;;;;;;;20.87;13.60;;;;;;;;;;772971;180;921777;-54
2022/09/21 01:34:38;;;;;;;27.27;16.70;;;;;;;;;;778867;178;918311;-55
2022/09/21 01:37:05;;;;;;;21.13;15.53;;;;;;;;;;772159;180;919097;-55
2022/09/21 01:39:31;;;;;;;22.80;15.30;;;;;;;;;;769365;180;918848;-55
2022/09/21 01:41:57;;;;;;;26.83;16.57;;;;;;;;;;764900;183;816918;-54
2022/09/21 01:44:22;;;;;;;26.33;16.60;;;;;;;;;;754189;183;919794;-55
2022/09/21 01:46:48;;;;;;;24.63;16.07;;;;;;;;;;760839;183;884880;-55
2022/09/21 01:49:15;;;;;;;25.67;15.40;;;;;;;;;;753786;184;919719;-55
2022/09/21 01:51:42;;;;;;;20.77;14.60;;;;;;;;;;765409;182;819692;-54
2022/09/21 01:54:06;;;;;;;27.40;17.42;;;;;;;;;;761708;183;919459;-54
2022/09/21 01:56:32;;;;;;;26.17;18.27;;;;;;;;;;759742;183;855377;-55
2022/09/21 01:59:14;;;;;;;25.90;16.60;;;;;;;;;;768639;183;918600;-54
2022/09/21 02:01:42;;;;;;;25.93;16.40;;;;;;;;;;762973;182;903620;-54
2022/09/21 02:04:07;;;;;;;23.40;16.33;;;;;;;;;;756776;183;920039;-55
2022/09/21 02:06:33;;;;;;;23.53;15.07;;;;;;;;;;762460;181;919656;-56
2022/09/21 02:08:59;;;;;;;23.57;14.67;;;;;;;;;;760781;183;915292;-56
2022/09/21 02:11:25;;;;;;;29.83;15.23;;;;;;;;;;761354;183;919340;-55
2022/09/21 02:13:51;;;;;;;28.13;15.53;;;;;;;;;;761021;183;921454;-55
2022/09/21 02:16:19;;;;;;;19.70;13.37;;;;;;;;;;771473;180;818392;-54
2022/09/21 02:19:02;;;;;;;22.17;14.70;;;;;;;;;;760560;183;918201;-54
2022/09/21 02:21:30;;;;;;;36.63;15.47;;;;;;;;;;755970;183;916671;-55
2022/09/21 02:24:10;;;;;;;27.30;15.60;;;;;;;;;;761366;181;920059;-54
2022/09/21 02:26:37;;;;;;;30.77;13.83;;;;;;;;;;772003;178;919340;-55
2022/09/21 02:29:18;;;;;;;31.87;14.90;;;;;;;;;;768192;181;920438;-55
2022/09/21 02:31:47;;;;;;;20.93;12.70;;;;;;;;;;764692;180;1021800;-54
2022/09/21 02:34:14;;;;;;;21.00;12.67;;;;;;;;;;774028;181;916357;-55
2022/09/21 02:36:42;;;;;;;22.00;13.97;;;;;;;;;;766891;181;939019;-54
2022/09/21 02:39:06;;;;;;;19.13;12.90;;;;;;;;;;766023;181;918079;-55
2022/09/21 02:41:35;;;;;;;20.58;11.68;;;;;;;;;;759418;183;931499;-56
2022/09/21 02:44:06;;;;;;;19.83;12.67;;;;;;;;;;754148;183;919761;-54
2022/09/21 02:46:33;;;;;;;22.03;12.67;;;;;;;;;;758479;183;921552;-55
2022/09/21 02:49:00;;;;;;;20.37;12.30;;;;;;;;;;756032;184;919701;-55
2022/09/21 02:51:28;;;;;;;15.37;10.83;;;;;;;;;;763423;182;918955;-54
2022/09/21 02:53:53;;;;;;;17.60;11.07;;;;;;;;;;764657;181;920051;-54
2022/09/21 02:56:19;;;;;;;14.10;11.20;;;;;;;;;;768688;181;941559;-54
2022/09/21 02:58:46;;;;;;;14.50;10.20;;;;;;;;;;768776;180;931030;-56
2022/09/21 03:01:12;;;;;;;13.70;10.73;;;;;;;;;;766378;182;920507;-55
2022/09/21 03:03:37;;;;;;;14.30;10.20;;;;;;;;;;759926;182;943547;-55
2022/09/21 03:06:03;;;;;;;20.30;9.80;;;;;;;;;;759129;183;919100;-55
2022/09/21 03:08:29;;;;;;;12.07;9.52;;;;;;;;;;760765;183;860714;-55
2022/09/21 03:10:56;;;;;;;13.03;8.53;;;;;;;;;;748726;183;918571;-55
2022/09/21 03:13:21;;;;;;;12.00;8.13;;;;;;;;;;772769;178;1016415;-56
2022/09/21 03:15:47;;;;;;;10.53;7.73;;;;;;;;;;766318;180;920306;-55
2022/09/21 03:18:13;;;;;;;10.53;8.00;;;;;;;;;;758206;183;918934;-55
2022/09/21 03:20:38;;;;;;;11.60;7.80;;;;;;;;;;759240;183;1017248;-56
2022/09/21 03:23:04;;;;;;;12.37;7.20;;;;;;;;;;757113;183;917135;-56
2022/09/21 03:25:30;;;;;;;13.57;7.40;;;;;;;;;;752614;186;919014;-55
2022/09/21 03:27:56;;;;;;;10.70;7.30;;;;;;;;;;746661;185;919675;-54
2022/09/21 03:30:22;;;;;;;12.57;8.07;;;;;;;;;;757692;183;918714;-55
2022/09/21 03:32:48;;;;;;;12.95;6.95;;;;;;;;;;764932;183;919314;-54
2022/09/21 03:35:14;;;;;;;9.80;7.37;;;;;;;;;;758793;183;921918;-57
2022/09/21 03:37:39;;;;;;;11.60;7.60;;;;;;;;;;753552;183;922545;-56
2022/09/21 03:40:06;;;;;;;11.53;7.73;;;;;;;;;;765655;184;819087;-55
2022/09/21 03:42:32;;;;;;;9.53;7.67;;;;;;;;;;761491;182;821758;-55
2022/09/21 03:44:57;;;;;;;15.53;7.70;;;;;;;;;;764870;178;918519;-54
2022/09/21 03:47:23;;;;;;;11.20;7.87;;;;;;;;;;759963;181;920556;-55
2022/09/21 03:49:49;;;;;;;12.00;8.47;;;;;;;;;;752559;183;921629;-55
2022/09/21 03:52:15;;;;;;;12.83;8.70;;;;;;;;;;758646;183;843847;-55
2022/09/21 03:54:41;;;;;;;12.67;9.10;;;;;;;;;;758217;183;918231;-55
2022/09/21 03:57:07;;;;;;;11.77;8.70;;;;;;;;;;764863;183;816735;-55
2022/09/21 03:59:34;;;;;;;11.85;8.32;;;;;;;;;;755122;183;919832;-55
2022/09/21 04:01:58;;;;;;;10.50;8.37;;;;;;;;;;755685;183;918751;-55
2022/09/21 04:04:24;;;;;;;17.90;8.80;;;;;;;;;;765360;183;913330;-57
2022/09/21 04:06:50;;;;;;;14.47;8.70;;;;;;;;;;754953;183;918927;-55
2022/09/21 04:09:16;;;;;;;10.80;8.10;;;;;;;;;;754972;183;919356;-55
2022/09/21 04:11:42;;;;;;;12.50;8.17;;;;;;;;;;763998;183;916820;-56
2022/09/21 04:14:07;;;;;;;13.27;10.00;;;;;;;;;;758695;183;915333;-55
2022/09/21 04:16:35;;;;;;;13.90;8.70;;;;;;;;;;755922;183;918087;-56
2022/09/21 04:19:01;;;;;;;15.90;9.97;;;;;;;;;;757026;183;943255;-55
2022/09/21 04:21:27;;;;;;;22.40;11.23;;;;;;;;;;763796;183;920233;-54
2022/09/21 04:23:53;;;;;;;18.07;10.30;;;;;;;;;;763692;183;920129;-55
2022/09/21 04:26:20;;;;;;;16.60;10.20;;;;;;;;;;755251;183;919255;-55
2022/09/21 04:28:45;;;;;;;15.63;10.63;;;;;;;;;;760294;183;918989;-54
2022/09/21 04:31:11;;;;;;;14.83;10.60;;;;;;;;;;758648;183;920398;-55
2022/09/21 04:33:37;;;;;;;17.80;11.63;;;;;;;;;;753363;183;920212;-55
2022/09/21 04:36:03;;;;;;;13.40;9.57;;;;;;;;;;762696;183;922542;-55
2022/09/21 04:38:29;;;;;;;18.33;11.07;;;;;;;;;;754576;183;876272;-55
2022/09/21 04:40:55;;;;;;;16.77;10.90;;;;;;;;;;758791;183;918646;-55
2022/09/21 04:43:21;;;;;;;16.67;11.43;;;;;;;;;;757785;183;922893;-55
2022/09/21 04:45:46;;;;;;;19.63;10.73;;;;;;;;;;763199;183;918416;-55
2022/09/21 04:48:12;;;;;;;14.43;10.10;;;;;;;;;;760440;183;919641;-55
2022/09/21 04:50:38;;;;;;;15.48;10.00;;;;;;;;;;761137;183;919437;-55
2022/09/21 04:53:04;;;;;;;17.00;10.57;;;;;;;;;;766227;183;920301;-55
2022/09/21 04:55:30;;;;;;;13.47;10.10;;;;;;;;;;754865;183;913501;-56
2022/09/21 04:57:56;;;;;;;14.83;9.57;;;;;;;;;;755212;184;917162;-56
2022/09/21 05:00:22;;;;;;;19.03;10.07;;;;;;;;;;763548;183;919691;-55
2022/09/21 05:02:47;;;;;;;20.87;9.77;;;;;;;;;;755296;183;919039;-56
2022/09/21 05:05:13;;;;;;;15.50;9.27;;;;;;;;;;758547;184;917983;-55
2022/09/21 05:07:39;;;;;;;19.43;11.17;;;;;;;;;;756905;183;919606;-56
2022/09/21 05:10:06;;;;;;;17.40;9.37;;;;;;;;;;765472;182;919304;-55
2022/09/21 05:12:32;;;;;;;17.47;10.80;;;;;;;;;;759899;183;916274;-55
2022/09/21 05:14:58;;;;;;;15.57;10.70;;;;;;;;;;757917;184;919010;-57
2022/09/21 05:17:23;;;;;;;20.37;10.70;;;;;;;;;;763338;183;816852;-55
2022/09/21 05:19:49;;;;;;;19.50;11.30;;;;;;;;;;755270;183;920140;-56
2022/09/21 05:22:15;;;;;;;20.53;12.30;;;;;;;;;;760181;181;919028;-55
2022/09/21 05:24:41;;;;;;;18.30;11.40;;;;;;;;;;761046;183;816677;-59
2022/09/21 05:27:07;;;;;;;20.53;10.93;;;;;;;;;;758847;183;916094;-55
2022/09/21 05:29:33;;;;;;;27.80;12.67;;;;;;;;;;757487;183;915146;-56
2022/09/21 05:32:03;;;;;;;17.58;11.43;;;;;;;;;;760389;183;885648;-55
2022/09/21 05:34:33;;;;;;;18.73;13.13;;;;;;;;;;757672;183;920142;-56
2022/09/21 05:36:59;;;;;;;21.33;13.03;;;;;;;;;;757655;183;919269;-56
2022/09/21 05:39:25;;;;;;;19.60;12.70;;;;;;;;;;757301;183;919135;-55
2022/09/21 05:41:52;;;;;;;22.30;13.33;;;;;;;;;;759497;183;817185;-55
2022/09/21 05:44:17;;;;;;;21.13;14.47;;;;;;;;;;766028;180;918260;-55
2022/09/21 05:46:47;;;;;;;26.83;13.20;;;;;;;;;;761222;183;918627;-55
2022/09/21 05:49:14;;;;;;;21.77;13.50;;;;;;;;;;755584;183;919508;-57
2022/09/21 05:51:40;;;;;;;22.97;12.93;;;;;;;;;;761696;183;826722;-55
2022/09/21 05:54:16;;;;;;;21.80;14.25;;;;;;;;;;754353;183;926383;-55
2022/09/21 05:56:48;;;;;;;20.37;13.73;;;;;;;;;;756070;183;919682;-55
2022/09/21 05:59:32;;;;;;;21.20;12.70;;;;;;;;;;757831;183;866216;-55
2022/09/21 06:01:58;;;;;;;24.53;14.00;;;;;;;;;;755181;183;922049;-55
2022/09/21 06:04:24;;;;;;;19.23;12.18;;;;;;;;;;762319;183;919556;-55
2022/09/21 06:06:51;;;;;;;20.80;12.80;;;;;;;;;;756791;183;919376;-55
2022/09/21 06:09:16;;;;;;;22.23;13.43;;;;;;;;;;758884;183;917695;-55
2022/09/21 06:11:42;;;;;;;16.80;11.47;;;;;;;;;;758192;183;868168;-54
2022/09/21 06:14:08;;;;;;;24.17;14.70;;;;;;;;;;759929;183;876771;-55
2022/09/21 06:16:38;;;;;;;21.83;14.70;;;;;;;;;;756330;184;915644;-56
2022/09/21 06:19:04;;;;;;;28.93;14.70;;;;;;;;;;758575;183;916624;-55
2022/09/21 06:21:30;;;;;;;28.20;14.33;;;;;;;;;;762088;183;820802;-56
2022/09/21 06:23:56;;;;;;;25.40;14.30;;;;;;;;;;758062;183;921839;-55
2022/09/21 06:26:22;;;;;;;26.07;15.37;;;;;;;;;;755402;183;918498;-56
2022/09/21 06:28:48;;;;;;;26.57;14.80;;;;;;;;;;759565;183;921146;-56
2022/09/21 06:31:13;;;;;;;21.30;13.13;;;;;;;;;;751592;187;920160;-55
2022/09/21 06:33:39;;;;;;;22.50;13.97;;;;;;;;;;748835;186;922848;-54
2022/09/21 06:36:05;;;;;;;20.47;13.10;;;;;;;;;;749840;184;921385;-57
2022/09/21 06:38:31;;;;;;;27.00;14.90;;;;;;;;;;763927;182;818720;-56
2022/09/21 06:40:57;;;;;;;21.20;13.73;;;;;;;;;;758537;183;922573;-56
2022/09/21 06:43:23;;;;;;;28.33;14.93;;;;;;;;;;759212;184;819064;-56
2022/09/21 06:45:51;;;;;;;26.23;14.20;;;;;;;;;;761004;183;920238;-55
2022/09/21 06:48:17;;;;;;;24.57;14.03;;;;;;;;;;771011;180;918749;-56
2022/09/21 06:50:43;;;;;;;21.57;13.17;;;;;;;;;;757364;183;919172;-56
2022/09/21 06:53:09;;;;;;;22.50;14.60;;;;;;;;;;756483;183;819098;-56
2022/09/21 06:55:35;;;;;;;25.60;14.30;;;;;;;;;;762373;183;820851;-56
2022/09/21 06:58:01;;;;;;;21.20;13.30;;;;;;;;;;757043;184;919365;-56
2022/09/21 07:00:27;;;;;;;27.40;11.70;;;;;;;;;;754757;183;919439;-55
2022/09/21 07:02:52;;;;;;;20.30;12.37;;;;;;;;;;766574;183;837368;-56
2022/09/21 07:05:18;;;;;;;22.20;11.40;;;;;;;;;;757937;181;915401;-55
2022/09/21 07:07:44;;;;;;;15.87;10.57;;;;;;;;;;758609;184;912066;-56
2022/09/21 07:10:10;;;;;;;15.43;11.80;;;;;;;;;;762097;183;918731;-55
2022/09/21 07:12:36;;;;;;;20.03;12.90;;;;;;;;;;755707;183;918868;-55
2022/09/21 07:15:02;;;;;;;20.33;11.00;;;;;;;;;;755101;183;916147;-55
2022/09/21 07:17:30;;;;;;;21.53;10.87;;;;;;;;;;758867;183;916742;-56
2022/09/21 07:19:56;;;;;;;15.37;9.70;;;;;;;;;;755791;183;819765;-56
2022/09/21 07:22:23;;;;;;;13.83;10.30;;;;;;;;;;755908;183;919443;-56
2022/09/21 07:24:48;;;;;;;18.97;10.97;;;;;;;;;;759787;183;916181;-55
2022/09/21 07:27:14;;;;;;;18.97;10.30;;;;;;;;;;762179;183;920320;-55
2022/09/21 07:29:40;;;;;;;16.20;11.33;;;;;;;;;;755288;183;920497;-55
2022/09/21 07:32:06;;;;;;;20.27;11.70;;;;;;;;;;756355;183;913968;-56
2022/09/21 07:34:34;;;;;;;19.40;12.10;;;;;;;;;;764122;184;914156;-55
2022/09/21 07:36:59;;;;;;;23.73;13.13;;;;;;;;;;757933;183;900080;-55
2022/09/21 07:39:25;;;;;;;26.00;15.33;;;;;;;;;;757548;183;818427;-57
2022/09/21 07:41:51;;;;;;;22.07;14.30;;;;;;;;;;758096;183;882868;-57
2022/09/21 07:44:17;;;;;;;27.53;15.10;;;;;;;;;;766696;183;820142;-55
2022/09/21 07:46:42;;;;;;;24.23;15.60;;;;;;;;;;756814;184;893709;-54
2022/09/21 07:49:08;;;;;;;21.90;14.00;;;;;;;;;;760263;183;816719;-55
2022/09/21 07:51:34;;;;;;;24.58;14.07;;;;;;;;;;765245;183;844251;-55
2022/09/21 07:54:00;;;;;;;20.57;13.30;;;;;;;;;;756003;183;917233;-53
2022/09/21 07:56:26;;;;;;;19.20;12.37;;;;;;;;;;756796;183;919035;-54
2022/09/21 08:01:23;;;;;;;15.13;9.87;;;;;;;;;;777168;179;830691;-55
2022/09/21 08:03:49;;;;;;;16.53;9.87;;;;;;;;;;762485;180;917839;-55
2022/09/21 08:06:15;;;;;;;17.87;11.43;;;;;;;;;;757074;183;919594;-57
2022/09/21 08:08:41;;;;;;;17.37;12.37;;;;;;;;;;761687;183;919408;-55
2022/09/21 08:11:07;;;;;;;17.23;10.03;;;;;;;;;;757588;183;919187;-55
2022/09/21 08:13:33;;;;;;;15.00;8.15;;;;;;;;;;757159;183;921304;-55
2022/09/21 08:16:00;;;;;;;12.40;6.40;;;;;;;;;;764194;183;816527;-55
2022/09/21 08:18:26;;;;;;;6.07;5.20;;;;;;;;;;758113;183;918374;-55
2022/09/21 08:20:53;;;;;;;5.35;4.50;;;;;;;;;;754493;183;843006;-54
2022/09/21 08:23:18;;;;;;;6.00;4.50;;;;;;;;;;759734;183;817265;-55
2022/09/21 08:25:44;;;;;;;5.85;3.47;;;;;;;;;;772560;180;819515;-54
2022/09/21 08:28:10;;;;;;;7.23;5.60;;;;;;;;;;769760;180;915620;-55
2022/09/21 08:30:36;;;;;;;9.37;6.90;;;;;;;;;;777038;177;630087;-55
2022/09/21 08:33:02;;;;;;;9.37;6.60;;;;;;;;;;769041;180;912773;-54
2022/09/21 08:35:27;;;;;;;9.27;5.87;;;;;;;;;;766330;180;915735;-54
2022/09/21 08:37:53;;;;;;;7.50;5.57;;;;;;;;;;762800;183;847656;-55
2022/09/21 08:40:19;;;;;;;7.60;5.67;;;;;;;;;;774597;180;874105;-54
2022/09/21 08:42:45;;;;;;;10.40;6.33;;;;;;;;;;771121;178;919924;-56
2022/09/21 08:45:15;;;;;;;6.80;4.30;;;;;;;;;;770316;177;915272;-54
2022/09/21 08:47:42;;;;;;;8.27;5.03;;;;;;;;;;760734;183;919716;-55
2022/09/21 08:50:07;;;;;;;5.70;4.33;;;;;;;;;;760833;184;918369;-54
2022/09/21 08:52:32;;;;;;;5.70;4.15;;;;;;;;;;756263;183;921159;-54
2022/09/21 08:54:59;;;;;;;5.80;3.90;;;;;;;;;;752934;183;1274781;-55
2022/09/21 08:57:25;;;;;;;16.87;5.50;;;;;;;;;;759354;184;727298;-55
2022/09/21 08:59:51;;;;;;;4.20;3.20;;;;;;;;;;761422;182;910577;-54
2022/09/21 09:02:26;;;;;;;4.30;3.50;;;;;;;;;;763452;180;920306;-55
2022/09/21 09:04:57;;;;;;;3.90;2.90;;;;;;;;;;763317;180;920445;-56
2022/09/21 09:07:24;;;;;;;8.40;3.00;;;;;;;;;;772782;180;819977;-58
2022/09/21 09:09:50;;;;;;;3.60;2.80;;;;;;;;;;762273;183;916954;-61
2022/09/21 09:12:22;;;;;;;4.80;3.30;;;;;;;;;;761905;183;916860;-58
2022/09/21 09:15:08;;;;;;;4.57;2.50;;;;;;;;;;753625;183;928908;-58
2022/09/21 09:17:37;;;;;;;3.37;2.03;;;;;;;;;;755097;183;920084;-58
2022/09/21 09:20:08;;;;;;;3.90;2.83;;;;;;;;;;761013;183;919337;-59
2022/09/21 09:22:34;;;;;;;4.23;2.30;;;;;;;;;;764766;182;915406;-58
2022/09/21 09:25:00;;;;;;;3.83;2.50;;;;;;;;;;756659;184;918193;-61
2022/09/21 09:27:27;;;;;;;3.70;2.90;;;;;;;;;;754426;183;919538;-61
2022/09/21 09:29:53;;;;;;;6.00;2.73;;;;;;;;;;761209;183;917357;-60
2022/09/21 09:32:20;;;;;;;6.90;2.70;;;;;;;;;;759275;184;919351;-59
2022/09/21 09:34:52;;;;;;;6.90;3.30;;;;;;;;;;756945;183;919084;-58
2022/09/21 09:37:16;;;;;;;5.50;3.50;;;;;;;;;;753745;183;918668;-61
2022/09/21 09:39:42;;;;;;;4.43;3.30;;;;;;;;;;759790;183;919086;-58
2022/09/21 09:42:23;;;;;;;5.50;3.97;;;;;;;;;;755191;183;922394;-61
2022/09/21 09:44:49;;;;;;;5.77;3.70;;;;;;;;;;758855;183;825837;-58
2022/09/21 09:47:31;;;;;;;6.68;3.62;;;;;;;;;;758874;183;918873;-58
2022/09/21 09:49:57;;;;;;;5.70;3.40;;;;;;;;;;754677;183;827331;-58
2022/09/21 09:52:23;;;;;;;5.80;3.77;;;;;;;;;;764828;183;815621;-62
2022/09/21 09:54:49;;;;;;;5.63;4.20;;;;;;;;;;757144;183;819165;-59
2022/09/21 09:57:15;;;;;;;3.87;3.00;;;;;;;;;;755724;183;917535;-58
2022/09/21 09:59:41;;;;;;;3.40;2.67;;;;;;;;;;764772;183;925187;-58
2022/09/21 10:02:07;;;;;;;8.33;2.87;;;;;;;;;;755231;183;918947;-61
2022/09/21 10:04:33;;;;;;;4.37;1.90;;;;;;;;;;753013;183;936639;-62
2022/09/21 10:06:58;;;;;;;4.67;2.33;;;;;;;;;;756858;183;919452;-58
2022/09/21 10:09:25;;;;;;;3.53;1.93;;;;;;;;;;774159;180;919150;-58
2022/09/21 10:11:51;;;;;;;3.90;2.20;;;;;;;;;;764298;177;806521;-57
2022/09/21 10:14:19;;;;;;;7.10;2.70;;;;;;;;;;758011;183;920489;-61
2022/09/21 10:16:45;;;;;;;3.10;2.13;;;;;;;;;;760937;183;821023;-61
2022/09/21 10:19:14;;;;;;;3.57;2.17;;;;;;;;;;758272;183;846854;-58
2022/09/21 10:21:40;;;;;;;5.33;2.00;;;;;;;;;;753747;183;918733;-62
2022/09/21 10:24:05;;;;;;;2.33;1.50;;;;;;;;;;757510;183;919575;-57
2022/09/21 10:26:31;;;;;;;3.10;2.00;;;;;;;;;;771687;180;854994;-58
2022/09/21 10:28:58;;;;;;;2.92;2.15;;;;;;;;;;773732;177;918061;-57
2022/09/21 10:31:24;;;;;;;2.97;1.60;;;;;;;;;;767166;180;915872;-58
2022/09/21 10:33:50;;;;;;;2.23;1.23;;;;;;;;;;762919;183;917989;-60
2022/09/21 10:36:22;;;;;;;2.27;1.30;;;;;;;;;;767470;180;816476;-56
2022/09/21 10:38:48;;;;;;;2.73;1.60;;;;;;;;;;765156;181;836596;-64
2022/09/21 10:41:14;;;;;;;5.80;1.60;;;;;;;;;;772443;179;907142;-62
2022/09/21 10:43:41;;;;;;;2.20;1.20;;;;;;;;;;766738;180;846888;-60
2022/09/21 10:46:05;;;;;;;2.60;1.30;;;;;;;;;;755719;183;914255;-58
2022/09/21 10:48:31;;;;;;;1.97;1.20;;;;;;;;;;755593;183;810464;-58
2022/09/21 10:50:57;;;;;;;2.50;1.23;;;;;;;;;;762026;183;915957;-60
2022/09/21 10:53:25;;;;;;;6.90;1.97;;;;;;;;;;757022;183;911518;-59
2022/09/21 10:55:51;;;;;;;4.40;2.53;;;;;;;;;;755912;183;813874;-59
2022/09/21 10:58:17;;;;;;;6.97;4.40;;;;;;;;;;761147;183;912277;-60
2022/09/21 11:00:43;;;;;;;5.40;3.07;;;;;;;;;;754165;183;907542;-58
2022/09/21 11:03:30;;;;;;;5.67;2.60;;;;;;;;;;753329;183;948711;-57
2022/09/21 11:05:56;;;;;;;2.85;1.67;;;;;;;;;;752278;183;921820;-57
2022/09/21 11:08:23;;;;;;;3.47;1.90;;;;;;;;;;761044;183;921281;-57
2022/09/21 11:10:53;;;;;;;2.67;1.90;;;;;;;;;;759128;183;920574;-57
2022/09/21 11:13:24;;;;;;;2.60;1.83;;;;;;;;;;760462;180;913246;-58
2022/09/21 11:15:51;;;;;;;2.95;2.05;;;;;;;;;;760230;183;914639;-57
2022/09/21 11:18:21;;;;;;;9.80;6.37;;;;;;;;;;755673;183;914953;-57
2022/09/21 11:20:48;;;;;;;3.10;2.10;;;;;;;;;;764169;183;813856;-59
2022/09/21 11:23:18;;;;;;;2.85;1.50;;;;;;;;;;758593;183;916052;-58
2022/09/21 11:25:53;;;;;;;2.93;1.90;;;;;;;;;;763160;183;743530;-58
2022/09/21 11:28:21;;;;;;;11.30;2.70;;;;;;;;;;762628;183;918488;-56
2022/09/21 11:30:54;;;;;;;3.83;2.92;;;;;;;;;;766480;183;815610;-57
2022/09/21 11:33:21;;;;;;;2.83;1.77;;;;;;;;;;747431;184;817277;-55
2022/09/21 11:35:53;;;;;;;3.47;1.70;;;;;;;;;;747699;182;905896;-57
2022/09/21 11:38:35;;;;;;;4.40;1.90;;;;;;;;;;759256;183;923904;-56
2022/09/21 11:41:22;;;;;;;2.57;1.60;;;;;;;;;;757910;183;921676;-58
2022/09/21 11:44:07;;;;;;;4.73;2.10;;;;;;;;;;764205;180;814276;-57
2022/09/21 11:46:33;;;;;;;3.13;1.83;;;;;;;;;;756469;183;822380;-58
2022/09/21 11:49:09;;;;;;;3.03;1.90;;;;;;;;;;755029;184;915700;-59
2022/09/21 11:51:37;;;;;;;3.40;1.83;;;;;;;;;;753770;183;919741;-59
2022/09/21 11:54:04;;;;;;;2.80;1.70;;;;;;;;;;768928;183;921236;-57
2022/09/21 11:56:31;;;;;;;2.70;1.57;;;;;;;;;;756480;183;920483;-57
2022/09/21 11:59:05;;;;;;;4.00;1.57;;;;;;;;;;763259;183;818495;-59
2022/09/21 12:01:26;;;;;;;2.65;1.55;;;;;;;;;;758255;183;917466;-60
2022/09/21 12:04:02;;;;;;;4.83;1.77;;;;;;;;;;758738;183;919054;-60
2022/09/21 12:06:34;;;;;;;6.50;1.80;;;;;;;;;;759754;183;917198;-56
2022/09/21 12:09:00;;;;;;;3.00;1.60;;;;;;;;;;760114;183;923006;-59
2022/09/21 12:11:32;;;;;;;7.47;1.90;;;;;;;;;;757435;183;919002;-56
2022/09/21 12:14:14;;;;;;;3.83;2.00;;;;;;;;;;761765;184;916740;-59
2022/09/21 12:16:41;;;;;;;3.67;1.90;;;;;;;;;;757622;184;915840;-56
2022/09/21 12:19:08;;;;;;;3.27;1.60;;;;;;;;;;764276;177;926799;-57
2022/09/21 12:21:34;;;;;;;4.07;1.80;;;;;;;;;;771187;180;919140;-60
2022/09/21 12:24:01;;;;;;;2.90;1.60;;;;;;;;;;770941;178;899716;-57
2022/09/21 12:26:27;;;;;;;4.27;2.03;;;;;;;;;;771925;180;820623;-58
2022/09/21 12:28:53;;;;;;;2.80;1.60;;;;;;;;;;758837;182;915342;-60
2022/09/21 12:31:21;;;;;;;5.53;1.43;;;;;;;;;;757160;183;887851;-60
2022/09/21 12:33:46;;;;;;;3.37;1.90;;;;;;;;;;762774;181;811860;-60
2022/09/21 12:36:15;;;;;;;3.13;1.53;;;;;;;;;;757026;183;922082;-57
2022/09/21 12:38:40;;;;;;;7.30;2.70;;;;;;;;;;755526;183;918959;-58
2022/09/21 12:41:09;;;;;;;4.20;2.15;;;;;;;;;;761710;183;917905;-58
2022/09/21 12:43:54;;;;;;;3.17;1.90;;;;;;;;;;775759;180;818956;-60
2022/09/21 12:46:20;;;;;;;3.90;1.67;;;;;;;;;;778571;179;817370;-57
2022/09/21 12:48:46;;;;;;;2.63;1.80;;;;;;;;;;765328;180;918927;-59
2022/09/21 12:51:28;;;;;;;3.97;1.58;;;;;;;;;;755559;183;815529;-58
2022/09/21 12:53:53;;;;;;;5.27;4.07;;;;;;;;;;755294;183;916950;-59
2022/09/21 12:56:21;;;;;;;6.33;2.57;;;;;;;;;;760858;183;874159;-57
2022/09/21 12:58:49;;;;;;;3.70;2.30;;;;;;;;;;769007;181;941785;-59
2022/09/21 13:01:31;;;;;;;9.23;7.87;;;;;;;;;;756971;184;919584;-59
2022/09/21 13:03:58;;;;;;;3.12;2.05;;;;;;;;;;755039;184;918838;-57
2022/09/21 13:06:29;;;;;;;10.00;6.60;;;;;;;;;;757421;183;818829;-58
2022/09/21 13:08:55;;;;;;;7.30;5.13;;;;;;;;;;766894;183;926447;-59
2022/09/21 13:11:21;;;;;;;4.17;2.23;;;;;;;;;;753727;183;919362;-59
2022/09/21 13:13:50;;;;;;;4.00;1.63;;;;;;;;;;756040;183;920451;-58
2022/09/21 13:16:19;;;;;;;4.17;1.93;;;;;;;;;;761461;184;919868;-61
2022/09/21 13:18:45;;;;;;;8.33;3.77;;;;;;;;;;764472;183;918813;-60
2022/09/21 13:21:17;;;;;;;4.30;2.57;;;;;;;;;;755778;184;918856;-60
2022/09/21 13:23:42;;;;;;;4.50;2.80;;;;;;;;;;759996;183;919328;-58
2022/09/21 13:26:08;;;;;;;6.50;4.60;;;;;;;;;;760384;183;813005;-58
2022/09/21 13:28:41;;;;;;;7.00;4.40;;;;;;;;;;757302;183;918555;-61
2022/09/21 13:31:28;;;;;;;9.03;4.60;;;;;;;;;;758504;181;930170;-60
2022/09/21 13:34:00;;;;;;;2.78;1.80;;;;;;;;;;753213;183;919230;-60
2022/09/21 13:36:29;;;;;;;3.37;1.57;;;;;;;;;;752050;185;917932;-59
2022/09/21 13:38:54;;;;;;;2.80;1.70;;;;;;;;;;749588;181;918946;-57
2022/09/21 13:41:24;;;;;;;2.70;1.63;;;;;;;;;;746459;187;918972;-57
2022/09/21 13:44:00;;;;;;;2.73;1.30;;;;;;;;;;747162;186;919205;-57
2022/09/21 13:46:47;;;;;;;2.53;1.43;;;;;;;;;;743013;186;919760;-57
2022/09/21 13:49:16;;;;;;;3.17;2.27;;;;;;;;;;750401;186;817743;-59
2022/09/21 13:51:47;;;;;;;31.73;26.62;;;;;;;;;;758359;183;919494;-57
2022/09/21 13:54:13;;;;;;;7.03;3.70;;;;;;;;;;759601;183;818508;-59
2022/09/21 13:56:40;;;;;;;10.88;9.77;;;;;;;;;;760956;183;908119;-60
2022/09/21 13:59:05;;;;;;;14.33;7.73;;;;;;;;;;758116;183;807490;-60
2022/09/21 14:01:32;;;;;;;4.33;2.70;;;;;;;;;;759567;182;821087;-61
2022/09/21 14:03:59;;;;;;;3.00;1.97;;;;;;;;;;762999;183;713582;-56
2022/09/21 14:06:26;;;;;;;2.90;1.60;;;;;;;;;;763136;183;919484;-59
2022/09/21 14:08:53;;;;;;;2.73;1.63;;;;;;;;;;760524;183;637208;-58
2022/09/21 14:11:35;;;;;;;2.77;1.40;;;;;;;;;;758142;183;816999;-58
2022/09/21 14:14:17;;;;;;;2.50;1.33;;;;;;;;;;759702;183;919458;-58
2022/09/21 14:16:50;;;;;;;3.80;2.47;;;;;;;;;;752676;183;923892;-58
2022/09/21 14:19:32;;;;;;;6.77;1.90;;;;;;;;;;763763;183;923942;-58
2022/09/21 14:22:19;;;;;;;4.93;3.77;;;;;;;;;;761949;183;625379;-58